sensor_id;sensor_type;location;lat;lon;timestamp;temperature;humidity
38380;DHT22;38377;47.418;18.882;2023-03-31T00:00:31;9.80;99.90
38380;DHT22;38377;47.418;18.882;2023-03-31T00:02:57;9.80;99.90
38380;DHT22;38377;47.418;18.882;2023-03-31T00:05:24;9.70;99.90
38380;DHT22;38377;47.418;18.882;2023-03-31T00:07:54;9.70;99.90
38380;DHT22;38377;47.418;18.882;2023-03-31T00:10:26;9.70;99.90
38380;DHT22;38377;47.418;18.882;2023-03-31T00:12:52;9.70;99.90
38380;DHT22;38377;47.418;18.882;2023-03-31T00:15:17;9.70;99.90
38380;DHT22;38377;47.418;18.882;2023-03-31T00:17:43;9.60;99.90
38380;DHT22;38377;47.418;18.882;2023-03-31T00:20:09;9.60;99.90
38380;DHT22;38377;47.418;18.882;2023-03-31T00:22:37;9.60;99.90
38380;DHT22;38377;47.418;18.882;2023-03-31T00:25:04;9.60;99.90
38380;DHT22;38377;47.418;18.882;2023-03-31T00:27:30;9.60;99.90
38380;DHT22;38377;47.418;18.882;2023-03-31T00:29:55;9.60;99.90
38380;DHT22;38377;47.418;18.882;2023-03-31T00:32:21;9.50;99.90
38380;DHT22;38377;47.418;18.882;2023-03-31T00:34:46;9.60;99.90
38380;DHT22;38377;47.418;18.882;2023-03-31T00:37:12;9.60;99.90
38380;DHT22;38377;47.418;18.882;2023-03-31T00:39:39;9.50;99.90
38380;DHT22;38377;47.418;18.882;2023-03-31T00:42:05;9.50;99.90
38380;DHT22;38377;47.418;18.882;2023-03-31T00:44:35;9.50;99.90
38380;DHT22;38377;47.418;18.882;2023-03-31T00:47:16;9.40;99.90
38380;DHT22;38377;47.418;18.882;2023-03-31T00:49:50;9.40;99.90
38380;DHT22;38377;47.418;18.882;2023-03-31T00:52:26;9.30;99.90
38380;DHT22;38377;47.418;18.882;2023-03-31T00:54:57;9.20;99.90
38380;DHT22;38377;47.418;18.882;2023-03-31T00:57:23;9.10;99.90
38380;DHT22;38377;47.418;18.882;2023-03-31T00:59:54;9.10;99.90
38380;DHT22;38377;47.418;18.882;2023-03-31T01:02:21;9.00;99.90
38380;DHT22;38377;47.418;18.882;2023-03-31T01:04:52;8.90;99.90
38380;DHT22;38377;47.418;18.882;2023-03-31T01:07:26;8.90;99.90
38380;DHT22;38377;47.418;18.882;2023-03-31T01:09:57;8.80;99.90
38380;DHT22;38377;47.418;18.882;2023-03-31T01:12:25;8.80;99.90
38380;DHT22;38377;47.418;18.882;2023-03-31T01:14:51;8.80;99.90
38380;DHT22;38377;47.418;18.882;2023-03-31T01:17:19;8.80;99.90
38380;DHT22;38377;47.418;18.882;2023-03-31T01:28:35;8.80;99.90
38380;DHT22;38377;47.418;18.882;2023-03-31T01:31:32;8.80;99.90
38380;DHT22;38377;47.418;18.882;2023-03-31T01:39:57;8.80;99.90
38380;DHT22;38377;47.418;18.882;2023-03-31T01:47:39;8.90;99.90
38380;DHT22;38377;47.418;18.882;2023-03-31T01:50:20;8.90;99.90
38380;DHT22;38377;47.418;18.882;2023-03-31T01:55:29;8.90;99.90
38380;DHT22;38377;47.418;18.882;2023-03-31T01:58:04;8.90;99.90
38380;DHT22;38377;47.418;18.882;2023-03-31T02:00:35;8.90;99.90
38380;DHT22;38377;47.418;18.882;2023-03-31T02:03:14;8.90;99.90
38380;DHT22;38377;47.418;18.882;2023-03-31T02:05:48;8.80;99.90
38380;DHT22;38377;47.418;18.882;2023-03-31T02:08:25;8.80;99.90
38380;DHT22;38377;47.418;18.882;2023-03-31T02:10:54;8.80;99.90
38380;DHT22;38377;47.418;18.882;2023-03-31T02:13:21;8.70;99.90
38380;DHT22;38377;47.418;18.882;2023-03-31T02:15:52;8.70;99.90
38380;DHT22;38377;47.418;18.882;2023-03-31T02:18:21;8.70;99.90
38380;DHT22;38377;47.418;18.882;2023-03-31T02:20:53;8.70;99.90
38380;DHT22;38377;47.418;18.882;2023-03-31T02:23:24;8.60;99.90
38380;DHT22;38377;47.418;18.882;2023-03-31T02:26:00;8.60;99.90
38380;DHT22;38377;47.418;18.882;2023-03-31T02:28:28;8.60;99.90
38380;DHT22;38377;47.418;18.882;2023-03-31T02:33:41;8.50;99.90
38380;DHT22;38377;47.418;18.882;2023-03-31T02:36:07;8.40;99.90
38380;DHT22;38377;47.418;18.882;2023-03-31T02:38:37;8.40;99.90
38380;DHT22;38377;47.418;18.882;2023-03-31T02:41:05;8.30;99.90
38380;DHT22;38377;47.418;18.882;2023-03-31T02:43:31;8.40;99.90
38380;DHT22;38377;47.418;18.882;2023-03-31T02:45:57;8.40;99.90
38380;DHT22;38377;47.418;18.882;2023-03-31T02:48:35;8.30;99.90
38380;DHT22;38377;47.418;18.882;2023-03-31T03:10:27;8.30;99.90
38380;DHT22;38377;47.418;18.882;2023-03-31T03:12:56;8.20;99.90
38380;DHT22;38377;47.418;18.882;2023-03-31T03:15:29;8.20;99.90
38380;DHT22;38377;47.418;18.882;2023-03-31T03:17:57;8.20;99.90
38380;DHT22;38377;47.418;18.882;2023-03-31T03:20:23;8.00;99.90
38380;DHT22;38377;47.418;18.882;2023-03-31T03:22:49;7.80;99.90
38380;DHT22;38377;47.418;18.882;2023-03-31T03:25:16;7.70;99.90
38380;DHT22;38377;47.418;18.882;2023-03-31T03:27:42;7.50;99.90
38380;DHT22;38377;47.418;18.882;2023-03-31T03:30:11;7.30;99.90
38380;DHT22;38377;47.418;18.882;2023-03-31T03:32:37;7.20;99.90
38380;DHT22;38377;47.418;18.882;2023-03-31T03:35:04;7.00;99.90
38380;DHT22;38377;47.418;18.882;2023-03-31T03:37:30;6.90;99.90
38380;DHT22;38377;47.418;18.882;2023-03-31T03:39:56;6.80;99.90
38380;DHT22;38377;47.418;18.882;2023-03-31T03:42:22;6.70;99.90
38380;DHT22;38377;47.418;18.882;2023-03-31T03:44:48;6.60;99.90
38380;DHT22;38377;47.418;18.882;2023-03-31T03:47:14;6.60;99.90
38380;DHT22;38377;47.418;18.882;2023-03-31T03:49:40;6.50;99.90
38380;DHT22;38377;47.418;18.882;2023-03-31T03:52:06;6.60;99.90
38380;DHT22;38377;47.418;18.882;2023-03-31T03:54:32;6.60;99.90
38380;DHT22;38377;47.418;18.882;2023-03-31T03:56:57;6.60;99.90
38380;DHT22;38377;47.418;18.882;2023-03-31T03:59:23;6.70;99.90
38380;DHT22;38377;47.418;18.882;2023-03-31T04:01:49;6.70;99.90
38380;DHT22;38377;47.418;18.882;2023-03-31T04:04:15;6.80;99.90
38380;DHT22;38377;47.418;18.882;2023-03-31T04:06:41;6.90;99.90
38380;DHT22;38377;47.418;18.882;2023-03-31T04:09:07;6.80;99.90
38380;DHT22;38377;47.418;18.882;2023-03-31T04:11:33;6.70;99.90
38380;DHT22;38377;47.418;18.882;2023-03-31T04:13:58;6.60;99.90
38380;DHT22;38377;47.418;18.882;2023-03-31T04:16:24;6.50;99.90
38380;DHT22;38377;47.418;18.882;2023-03-31T04:18:51;6.40;99.90
38380;DHT22;38377;47.418;18.882;2023-03-31T04:21:21;6.50;99.90
38380;DHT22;38377;47.418;18.882;2023-03-31T04:23:48;6.50;99.90
38380;DHT22;38377;47.418;18.882;2023-03-31T04:26:16;6.60;99.90
38380;DHT22;38377;47.418;18.882;2023-03-31T04:28:42;6.70;99.90
38380;DHT22;38377;47.418;18.882;2023-03-31T04:31:12;6.90;99.90
38380;DHT22;38377;47.418;18.882;2023-03-31T04:33:53;7.10;99.90
38380;DHT22;38377;47.418;18.882;2023-03-31T04:36:19;7.30;99.90
38380;DHT22;38377;47.418;18.882;2023-03-31T04:38:47;7.30;99.90
38380;DHT22;38377;47.418;18.882;2023-03-31T04:41:15;7.40;99.90
38380;DHT22;38377;47.418;18.882;2023-03-31T04:43:41;7.40;99.90
38380;DHT22;38377;47.418;18.882;2023-03-31T04:46:08;7.40;99.90
38380;DHT22;38377;47.418;18.882;2023-03-31T04:48:34;7.30;99.90
38380;DHT22;38377;47.418;18.882;2023-03-31T04:51:00;7.30;99.90
38380;DHT22;38377;47.418;18.882;2023-03-31T04:53:25;7.30;99.90
38380;DHT22;38377;47.418;18.882;2023-03-31T04:55:51;7.10;99.90
38380;DHT22;38377;47.418;18.882;2023-03-31T04:58:17;7.00;99.90
38380;DHT22;38377;47.418;18.882;2023-03-31T05:00:43;6.90;99.90
38380;DHT22;38377;47.418;18.882;2023-03-31T05:03:09;6.80;99.90
38380;DHT22;38377;47.418;18.882;2023-03-31T05:05:35;6.80;99.90
38380;DHT22;38377;47.418;18.882;2023-03-31T05:08:02;6.80;99.90
38380;DHT22;38377;47.418;18.882;2023-03-31T05:10:29;6.80;99.90
38380;DHT22;38377;47.418;18.882;2023-03-31T05:12:55;6.90;99.90
38380;DHT22;38377;47.418;18.882;2023-03-31T05:15:21;6.90;99.90
38380;DHT22;38377;47.418;18.882;2023-03-31T05:17:48;7.00;99.90
38380;DHT22;38377;47.418;18.882;2023-03-31T05:20:15;7.00;99.90
38380;DHT22;38377;47.418;18.882;2023-03-31T05:22:41;7.10;99.90
38380;DHT22;38377;47.418;18.882;2023-03-31T05:25:08;7.20;99.90
38380;DHT22;38377;47.418;18.882;2023-03-31T05:27:34;7.30;99.90
38380;DHT22;38377;47.418;18.882;2023-03-31T05:30:01;7.50;99.90
38380;DHT22;38377;47.418;18.882;2023-03-31T05:32:27;7.60;99.90
38380;DHT22;38377;47.418;18.882;2023-03-31T05:34:53;7.80;99.90
38380;DHT22;38377;47.418;18.882;2023-03-31T05:37:23;7.90;99.90
38380;DHT22;38377;47.418;18.882;2023-03-31T05:39:50;8.10;99.90
38380;DHT22;38377;47.418;18.882;2023-03-31T05:42:16;8.30;99.90
38380;DHT22;38377;47.418;18.882;2023-03-31T05:44:41;8.60;99.90
38380;DHT22;38377;47.418;18.882;2023-03-31T05:47:07;8.90;99.90
38380;DHT22;38377;47.418;18.882;2023-03-31T05:49:33;9.10;99.90
38380;DHT22;38377;47.418;18.882;2023-03-31T05:51:58;9.40;99.90
38380;DHT22;38377;47.418;18.882;2023-03-31T05:54:25;9.60;99.90
38380;DHT22;38377;47.418;18.882;2023-03-31T05:56:51;9.90;99.90
38380;DHT22;38377;47.418;18.882;2023-03-31T05:59:17;10.20;99.90
38380;DHT22;38377;47.418;18.882;2023-03-31T06:01:42;10.40;99.90
38380;DHT22;38377;47.418;18.882;2023-03-31T06:04:08;10.60;99.90
38380;DHT22;38377;47.418;18.882;2023-03-31T06:06:34;10.60;99.90
38380;DHT22;38377;47.418;18.882;2023-03-31T06:09:04;10.60;99.90
38380;DHT22;38377;47.418;18.882;2023-03-31T06:11:30;10.70;99.90
38380;DHT22;38377;47.418;18.882;2023-03-31T06:13:55;10.90;99.90
38380;DHT22;38377;47.418;18.882;2023-03-31T06:16:21;10.90;99.90
38380;DHT22;38377;47.418;18.882;2023-03-31T06:18:47;11.00;99.90
38380;DHT22;38377;47.418;18.882;2023-03-31T06:21:14;11.00;99.90
38380;DHT22;38377;47.418;18.882;2023-03-31T06:23:41;11.20;99.90
38380;DHT22;38377;47.418;18.882;2023-03-31T06:26:14;11.40;99.90
38380;DHT22;38377;47.418;18.882;2023-03-31T06:28:40;11.60;99.90
38380;DHT22;38377;47.418;18.882;2023-03-31T06:31:11;11.80;99.90
38380;DHT22;38377;47.418;18.882;2023-03-31T06:33:39;12.20;99.90
38380;DHT22;38377;47.418;18.882;2023-03-31T06:36:06;12.30;99.90
38380;DHT22;38377;47.418;18.882;2023-03-31T06:38:33;12.30;99.90
38380;DHT22;38377;47.418;18.882;2023-03-31T06:40:59;12.20;99.90
38380;DHT22;38377;47.418;18.882;2023-03-31T06:43:25;12.20;99.90
38380;DHT22;38377;47.418;18.882;2023-03-31T06:45:54;12.30;99.90
38380;DHT22;38377;47.418;18.882;2023-03-31T06:48:21;12.20;99.90
38380;DHT22;38377;47.418;18.882;2023-03-31T06:50:47;12.30;99.90
38380;DHT22;38377;47.418;18.882;2023-03-31T06:53:12;12.20;99.90
38380;DHT22;38377;47.418;18.882;2023-03-31T06:55:38;12.00;99.90
38380;DHT22;38377;47.418;18.882;2023-03-31T06:58:04;12.00;99.90
38380;DHT22;38377;47.418;18.882;2023-03-31T07:00:31;12.10;99.90
38380;DHT22;38377;47.418;18.882;2023-03-31T07:02:57;12.30;99.90
38380;DHT22;38377;47.418;18.882;2023-03-31T07:05:22;12.40;99.90
38380;DHT22;38377;47.418;18.882;2023-03-31T07:07:55;12.50;99.90
38380;DHT22;38377;47.418;18.882;2023-03-31T07:10:22;12.70;99.90
38380;DHT22;38377;47.418;18.882;2023-03-31T07:12:48;12.70;99.90
38380;DHT22;38377;47.418;18.882;2023-03-31T07:15:14;12.80;99.90
38380;DHT22;38377;47.418;18.882;2023-03-31T07:17:39;13.00;99.90
38380;DHT22;38377;47.418;18.882;2023-03-31T07:20:08;13.10;99.90
38380;DHT22;38377;47.418;18.882;2023-03-31T07:22:37;13.30;99.90
38380;DHT22;38377;47.418;18.882;2023-03-31T07:25:03;13.30;99.90
38380;DHT22;38377;47.418;18.882;2023-03-31T07:27:29;13.40;99.90
38380;DHT22;38377;47.418;18.882;2023-03-31T07:29:55;13.50;99.90
38380;DHT22;38377;47.418;18.882;2023-03-31T07:32:20;13.80;99.90
38380;DHT22;38377;47.418;18.882;2023-03-31T07:34:48;13.90;99.90
38380;DHT22;38377;47.418;18.882;2023-03-31T07:37:13;13.90;99.90
38380;DHT22;38377;47.418;18.882;2023-03-31T07:39:39;13.90;99.90
38380;DHT22;38377;47.418;18.882;2023-03-31T07:42:05;13.90;99.90
38380;DHT22;38377;47.418;18.882;2023-03-31T07:44:34;13.90;99.90
38380;DHT22;38377;47.418;18.882;2023-03-31T07:47:00;13.90;99.90
38380;DHT22;38377;47.418;18.882;2023-03-31T07:49:29;13.90;99.90
38380;DHT22;38377;47.418;18.882;2023-03-31T07:51:55;14.00;99.90
38380;DHT22;38377;47.418;18.882;2023-03-31T07:54:21;14.10;99.90
38380;DHT22;38377;47.418;18.882;2023-03-31T07:56:47;14.40;99.90
38380;DHT22;38377;47.418;18.882;2023-03-31T07:59:13;14.70;99.90
38380;DHT22;38377;47.418;18.882;2023-03-31T08:01:38;14.70;99.90
38380;DHT22;38377;47.418;18.882;2023-03-31T08:04:04;14.70;99.90
38380;DHT22;38377;47.418;18.882;2023-03-31T08:06:30;14.80;99.90
38380;DHT22;38377;47.418;18.882;2023-03-31T08:08:57;14.80;99.90
38380;DHT22;38377;47.418;18.882;2023-03-31T08:11:23;14.90;99.90
38380;DHT22;38377;47.418;18.882;2023-03-31T08:13:49;15.20;99.90
38380;DHT22;38377;47.418;18.882;2023-03-31T08:16:15;15.30;99.90
38380;DHT22;38377;47.418;18.882;2023-03-31T08:18:41;15.30;99.90
38380;DHT22;38377;47.418;18.882;2023-03-31T08:21:07;15.40;99.90
38380;DHT22;38377;47.418;18.882;2023-03-31T08:23:36;15.50;99.90
38380;DHT22;38377;47.418;18.882;2023-03-31T08:26:15;15.80;99.90
38380;DHT22;38377;47.418;18.882;2023-03-31T08:28:44;15.90;99.90
38380;DHT22;38377;47.418;18.882;2023-03-31T08:31:10;15.80;99.90
38380;DHT22;38377;47.418;18.882;2023-03-31T08:33:37;16.00;99.90
38380;DHT22;38377;47.418;18.882;2023-03-31T08:36:05;15.90;99.90
38380;DHT22;38377;47.418;18.882;2023-03-31T08:38:37;15.80;99.90
38380;DHT22;38377;47.418;18.882;2023-03-31T08:41:05;15.90;99.90
38380;DHT22;38377;47.418;18.882;2023-03-31T08:43:40;15.90;99.90
38380;DHT22;38377;47.418;18.882;2023-03-31T08:46:09;16.10;99.90
38380;DHT22;38377;47.418;18.882;2023-03-31T08:48:43;16.00;99.90
38380;DHT22;38377;47.418;18.882;2023-03-31T08:51:35;15.80;99.90
38380;DHT22;38377;47.418;18.882;2023-03-31T08:54:31;15.80;99.90
38380;DHT22;38377;47.418;18.882;2023-03-31T08:56:59;15.80;99.90
38380;DHT22;38377;47.418;18.882;2023-03-31T09:07:57;16.50;99.90
38380;DHT22;38377;47.418;18.882;2023-03-31T09:18:31;16.70;99.90
38380;DHT22;38377;47.418;18.882;2023-03-31T09:21:05;16.50;99.90
38380;DHT22;38377;47.418;18.882;2023-03-31T09:23:38;16.60;99.90
38380;DHT22;38377;47.418;18.882;2023-03-31T09:26:12;16.70;99.90
38380;DHT22;38377;47.418;18.882;2023-03-31T09:28:41;16.90;99.90
38380;DHT22;38377;47.418;18.882;2023-03-31T09:31:13;17.10;99.90
38380;DHT22;38377;47.418;18.882;2023-03-31T09:33:44;17.10;98.80
38380;DHT22;38377;47.418;18.882;2023-03-31T09:36:15;17.00;99.90
38380;DHT22;38377;47.418;18.882;2023-03-31T09:38:43;17.00;99.90
38380;DHT22;38377;47.418;18.882;2023-03-31T09:41:10;17.00;99.90
38380;DHT22;38377;47.418;18.882;2023-03-31T09:43:38;16.80;99.70
38380;DHT22;38377;47.418;18.882;2023-03-31T09:46:16;16.70;99.90
38380;DHT22;38377;47.418;18.882;2023-03-31T09:48:51;16.70;99.90
38380;DHT22;38377;47.418;18.882;2023-03-31T09:51:22;16.80;99.90
38380;DHT22;38377;47.418;18.882;2023-03-31T09:56:50;16.80;99.90
38380;DHT22;38377;47.418;18.882;2023-03-31T09:59:21;17.00;99.90
38380;DHT22;38377;47.418;18.882;2023-03-31T10:01:52;17.10;99.90
38380;DHT22;38377;47.418;18.882;2023-03-31T10:04:30;17.10;99.80
38380;DHT22;38377;47.418;18.882;2023-03-31T10:06:58;17.00;99.60
38380;DHT22;38377;47.418;18.882;2023-03-31T10:09:26;17.30;97.30
38380;DHT22;38377;47.418;18.882;2023-03-31T10:12:07;17.30;97.10
38380;DHT22;38377;47.418;18.882;2023-03-31T10:14:40;17.20;97.00
38380;DHT22;38377;47.418;18.882;2023-03-31T10:17:06;17.00;96.80
38380;DHT22;38377;47.418;18.882;2023-03-31T10:19:34;16.70;97.70
38380;DHT22;38377;47.418;18.882;2023-03-31T10:22:13;16.80;98.20
38380;DHT22;38377;47.418;18.882;2023-03-31T10:24:44;16.90;98.90
38380;DHT22;38377;47.418;18.882;2023-03-31T10:27:30;16.70;98.30
38380;DHT22;38377;47.418;18.882;2023-03-31T10:29:57;16.90;97.80
38380;DHT22;38377;47.418;18.882;2023-03-31T10:32:31;16.80;96.90
38380;DHT22;38377;47.418;18.882;2023-03-31T10:35:04;16.60;97.30
38380;DHT22;38377;47.418;18.882;2023-03-31T10:37:31;16.70;97.50
38380;DHT22;38377;47.418;18.882;2023-03-31T10:40:23;16.50;97.90
38380;DHT22;38377;47.418;18.882;2023-03-31T10:43:13;16.60;96.60
38380;DHT22;38377;47.418;18.882;2023-03-31T10:45:56;16.50;95.90
38380;DHT22;38377;47.418;18.882;2023-03-31T10:48:31;16.70;94.80
38380;DHT22;38377;47.418;18.882;2023-03-31T10:53:42;17.00;94.80
38380;DHT22;38377;47.418;18.882;2023-03-31T11:09:48;17.90;93.60
38380;DHT22;38377;47.418;18.882;2023-03-31T11:12:20;17.70;94.00
38380;DHT22;38377;47.418;18.882;2023-03-31T11:14:53;17.50;93.90
38380;DHT22;38377;47.418;18.882;2023-03-31T11:20:30;17.20;94.90
38380;DHT22;38377;47.418;18.882;2023-03-31T11:23:49;17.20;95.90
38380;DHT22;38377;47.418;18.882;2023-03-31T11:26:05;17.30;95.90
38380;DHT22;38377;47.418;18.882;2023-03-31T11:31:31;17.30;95.60
38380;DHT22;38377;47.418;18.882;2023-03-31T11:41:40;17.60;95.40
38380;DHT22;38377;47.418;18.882;2023-03-31T11:44:12;17.70;96.30
38380;DHT22;38377;47.418;18.882;2023-03-31T11:47:00;17.80;96.10
38380;DHT22;38377;47.418;18.882;2023-03-31T11:49:29;17.90;95.10
38380;DHT22;38377;47.418;18.882;2023-03-31T11:52:02;17.90;95.20
38380;DHT22;38377;47.418;18.882;2023-03-31T11:55:31;18.10;95.90
38380;DHT22;38377;47.418;18.882;2023-03-31T11:58:11;18.50;95.60
38380;DHT22;38377;47.418;18.882;2023-03-31T12:03:55;18.50;93.50
38380;DHT22;38377;47.418;18.882;2023-03-31T12:06:24;18.60;92.70
38380;DHT22;38377;47.418;18.882;2023-03-31T12:12:14;18.10;93.70
38380;DHT22;38377;47.418;18.882;2023-03-31T12:17:48;18.40;93.70
38380;DHT22;38377;47.418;18.882;2023-03-31T12:20:28;18.50;91.70
38380;DHT22;38377;47.418;18.882;2023-03-31T12:22:55;18.60;92.80
38380;DHT22;38377;47.418;18.882;2023-03-31T12:25:23;18.50;92.40
38380;DHT22;38377;47.418;18.882;2023-03-31T12:27:51;18.50;92.70
38380;DHT22;38377;47.418;18.882;2023-03-31T12:35:31;18.80;92.30
38380;DHT22;38377;47.418;18.882;2023-03-31T12:38:34;18.90;92.90
38380;DHT22;38377;47.418;18.882;2023-03-31T12:55:42;18.80;89.30
38380;DHT22;38377;47.418;18.882;2023-03-31T13:01:12;19.10;88.80
38380;DHT22;38377;47.418;18.882;2023-03-31T13:16:30;19.20;87.70
38380;DHT22;38377;47.418;18.882;2023-03-31T13:18:57;19.10;87.90
38380;DHT22;38377;47.418;18.882;2023-03-31T13:21:23;18.90;89.00
38380;DHT22;38377;47.418;18.882;2023-03-31T13:23:50;18.70;89.40
38380;DHT22;38377;47.418;18.882;2023-03-31T13:26:36;18.20;89.00
38380;DHT22;38377;47.418;18.882;2023-03-31T13:34:28;17.90;90.00
38380;DHT22;38377;47.418;18.882;2023-03-31T13:45:05;17.60;89.50
38380;DHT22;38377;47.418;18.882;2023-03-31T13:48:10;17.50;90.60
38380;DHT22;38377;47.418;18.882;2023-03-31T13:51:10;17.50;87.50
38380;DHT22;38377;47.418;18.882;2023-03-31T13:56:29;17.40;87.80
38380;DHT22;38377;47.418;18.882;2023-03-31T14:05:03;17.40;89.20
38380;DHT22;38377;47.418;18.882;2023-03-31T14:07:39;17.40;88.90
38380;DHT22;38377;47.418;18.882;2023-03-31T14:10:41;17.50;87.50
38380;DHT22;38377;47.418;18.882;2023-03-31T14:13:11;17.70;88.10
38380;DHT22;38377;47.418;18.882;2023-03-31T14:15:42;18.00;86.30
38380;DHT22;38377;47.418;18.882;2023-03-31T14:18:14;18.50;86.00
38380;DHT22;38377;47.418;18.882;2023-03-31T14:23:37;18.10;86.20
38380;DHT22;38377;47.418;18.882;2023-03-31T14:31:34;18.00;84.10
38380;DHT22;38377;47.418;18.882;2023-03-31T14:36:59;17.70;85.40
38380;DHT22;38377;47.418;18.882;2023-03-31T14:39:32;17.70;86.90
38380;DHT22;38377;47.418;18.882;2023-03-31T14:42:03;17.50;87.90
38380;DHT22;38377;47.418;18.882;2023-03-31T14:44:33;17.20;89.50
38380;DHT22;38377;47.418;18.882;2023-03-31T14:46:59;17.10;89.70
38380;DHT22;38377;47.418;18.882;2023-03-31T14:49:27;17.00;90.60
38380;DHT22;38377;47.418;18.882;2023-03-31T14:51:57;17.10;90.10
38380;DHT22;38377;47.418;18.882;2023-03-31T14:54:25;17.20;88.90
38380;DHT22;38377;47.418;18.882;2023-03-31T14:56:56;17.10;89.20
38380;DHT22;38377;47.418;18.882;2023-03-31T14:59:30;17.10;88.10
38380;DHT22;38377;47.418;18.882;2023-03-31T15:01:58;17.00;88.80
38380;DHT22;38377;47.418;18.882;2023-03-31T15:04:27;16.90;87.90
38380;DHT22;38377;47.418;18.882;2023-03-31T15:06:53;16.90;87.60
38380;DHT22;38377;47.418;18.882;2023-03-31T15:09:28;16.90;88.70
38380;DHT22;38377;47.418;18.882;2023-03-31T15:11:58;16.80;88.20
38380;DHT22;38377;47.418;18.882;2023-03-31T15:14:37;16.80;88.90
38380;DHT22;38377;47.418;18.882;2023-03-31T15:17:05;16.80;89.20
38380;DHT22;38377;47.418;18.882;2023-03-31T15:19:34;16.80;89.20
38380;DHT22;38377;47.418;18.882;2023-03-31T15:22:15;16.60;89.20
38380;DHT22;38377;47.418;18.882;2023-03-31T15:24:43;16.50;90.10
38380;DHT22;38377;47.418;18.882;2023-03-31T15:29:55;16.30;91.00
38380;DHT22;38377;47.418;18.882;2023-03-31T15:32:28;16.20;91.30
38380;DHT22;38377;47.418;18.882;2023-03-31T15:34:55;16.10;91.30
38380;DHT22;38377;47.418;18.882;2023-03-31T15:37:25;16.00;90.90
38380;DHT22;38377;47.418;18.882;2023-03-31T15:39:59;15.90;90.80
38380;DHT22;38377;47.418;18.882;2023-03-31T15:42:26;15.90;91.10
38380;DHT22;38377;47.418;18.882;2023-03-31T15:45:37;15.70;90.60
38380;DHT22;38377;47.418;18.882;2023-03-31T15:47:50;15.70;90.70
38380;DHT22;38377;47.418;18.882;2023-03-31T15:50:17;15.60;91.10
38380;DHT22;38377;47.418;18.882;2023-03-31T15:52:53;15.60;91.20
38380;DHT22;38377;47.418;18.882;2023-03-31T15:55:23;15.50;91.20
38380;DHT22;38377;47.418;18.882;2023-03-31T15:57:50;15.50;91.40
38380;DHT22;38377;47.418;18.882;2023-03-31T16:03:33;15.40;91.80
38380;DHT22;38377;47.418;18.882;2023-03-31T16:06:03;15.40;91.30
38380;DHT22;38377;47.418;18.882;2023-03-31T16:08:34;15.40;91.30
38380;DHT22;38377;47.418;18.882;2023-03-31T16:11:14;15.30;91.30
38380;DHT22;38377;47.418;18.882;2023-03-31T16:13:46;15.20;91.60
38380;DHT22;38377;47.418;18.882;2023-03-31T16:16:16;15.00;91.70
38380;DHT22;38377;47.418;18.882;2023-03-31T16:18:50;14.90;92.00
38380;DHT22;38377;47.418;18.882;2023-03-31T16:21:27;14.70;92.40
38380;DHT22;38377;47.418;18.882;2023-03-31T16:23:58;14.60;93.00
38380;DHT22;38377;47.418;18.882;2023-03-31T16:26:26;14.50;93.10
38380;DHT22;38377;47.418;18.882;2023-03-31T16:28:54;14.40;93.30
38380;DHT22;38377;47.418;18.882;2023-03-31T16:31:33;14.40;93.40
38380;DHT22;38377;47.418;18.882;2023-03-31T16:34:00;14.40;93.50
38380;DHT22;38377;47.418;18.882;2023-03-31T16:36:26;14.30;93.70
38380;DHT22;38377;47.418;18.882;2023-03-31T16:38:53;14.30;93.80
38380;DHT22;38377;47.418;18.882;2023-03-31T16:41:20;14.30;93.90
38380;DHT22;38377;47.418;18.882;2023-03-31T16:43:47;14.20;93.90
38380;DHT22;38377;47.418;18.882;2023-03-31T16:46:16;14.30;93.70
38380;DHT22;38377;47.418;18.882;2023-03-31T16:48:43;14.20;93.90
38380;DHT22;38377;47.418;18.882;2023-03-31T16:51:08;14.10;94.10
38380;DHT22;38377;47.418;18.882;2023-03-31T16:53:35;14.10;94.30
38380;DHT22;38377;47.418;18.882;2023-03-31T16:56:02;14.00;94.00
38380;DHT22;38377;47.418;18.882;2023-03-31T16:58:29;14.00;94.10
38380;DHT22;38377;47.418;18.882;2023-03-31T17:00:56;13.90;94.40
38380;DHT22;38377;47.418;18.882;2023-03-31T17:03:22;13.90;94.50
38380;DHT22;38377;47.418;18.882;2023-03-31T17:05:49;13.80;94.70
38380;DHT22;38377;47.418;18.882;2023-03-31T17:08:17;13.80;94.80
38380;DHT22;38377;47.418;18.882;2023-03-31T17:10:51;13.70;94.90
38380;DHT22;38377;47.418;18.882;2023-03-31T17:13:17;13.60;94.90
38380;DHT22;38377;47.418;18.882;2023-03-31T17:15:43;13.60;95.10
38380;DHT22;38377;47.418;18.882;2023-03-31T17:18:09;13.60;95.30
38380;DHT22;38377;47.418;18.882;2023-03-31T17:20:35;13.50;95.40
38380;DHT22;38377;47.418;18.882;2023-03-31T17:23:01;13.50;95.70
38380;DHT22;38377;47.418;18.882;2023-03-31T17:25:27;13.40;95.80
38380;DHT22;38377;47.418;18.882;2023-03-31T17:27:52;13.40;95.80
38380;DHT22;38377;47.418;18.882;2023-03-31T17:30:21;13.40;95.80
38380;DHT22;38377;47.418;18.882;2023-03-31T17:32:47;13.40;95.90
38380;DHT22;38377;47.418;18.882;2023-03-31T17:35:13;13.40;96.00
38380;DHT22;38377;47.418;18.882;2023-03-31T17:37:46;13.30;96.10
38380;DHT22;38377;47.418;18.882;2023-03-31T17:40:15;13.30;96.40
38380;DHT22;38377;47.418;18.882;2023-03-31T17:42:41;13.30;96.40
38380;DHT22;38377;47.418;18.882;2023-03-31T17:45:08;13.20;96.60
38380;DHT22;38377;47.418;18.882;2023-03-31T17:47:33;13.20;96.60
38380;DHT22;38377;47.418;18.882;2023-03-31T17:49:59;13.20;96.60
38380;DHT22;38377;47.418;18.882;2023-03-31T17:52:25;13.20;96.60
38380;DHT22;38377;47.418;18.882;2023-03-31T17:54:52;13.10;96.70
38380;DHT22;38377;47.418;18.882;2023-03-31T17:57:17;13.10;96.90
38380;DHT22;38377;47.418;18.882;2023-03-31T17:59:43;13.10;96.90
38380;DHT22;38377;47.418;18.882;2023-03-31T18:02:12;13.10;97.20
38380;DHT22;38377;47.418;18.882;2023-03-31T18:04:39;13.10;97.10
38380;DHT22;38377;47.418;18.882;2023-03-31T18:07:05;13.10;97.20
38380;DHT22;38377;47.418;18.882;2023-03-31T18:09:31;13.00;97.60
38380;DHT22;38377;47.418;18.882;2023-03-31T18:11:58;13.00;97.90
38380;DHT22;38377;47.418;18.882;2023-03-31T18:14:24;13.00;98.00
38380;DHT22;38377;47.418;18.882;2023-03-31T18:16:50;12.90;98.40
38380;DHT22;38377;47.418;18.882;2023-03-31T18:19:16;12.90;98.60
38380;DHT22;38377;47.418;18.882;2023-03-31T18:21:41;12.80;99.50
38380;DHT22;38377;47.418;18.882;2023-03-31T18:24:07;12.70;99.90
38380;DHT22;38377;47.418;18.882;2023-03-31T18:26:33;12.60;99.90
38380;DHT22;38377;47.418;18.882;2023-03-31T18:28:58;12.50;99.90
38380;DHT22;38377;47.418;18.882;2023-03-31T18:31:24;12.50;99.90
38380;DHT22;38377;47.418;18.882;2023-03-31T18:33:52;12.50;99.90